SAWD/PUD METAR and TAF weather

Enter ICAO airport designator
Station Type Date Time Source
SAWD METAR 2013/01/23 16:00 UTC NOAA

SAWD 231600Z 18008KT 9999 -RA BKN018 BKN100 14/05 Q1011


Station Type Date Time Source
SAWD Decoded METAR 2013/01/23 16:00 UTC NOAA

Puerto Deseado Aerodrome, Argentina (SAWD) 47-44S 065-55W 80M
Jan 23, 2013 - 11:00 AM EST / 2013.01.23 1600 UTC
Wind: from the S (180 degrees) at 9 MPH (8 KT):0
Visibility: greater than 7 mile(s):0
Sky conditions: mostly cloudy
Weather: light rain
Temperature: 57 F (14 C)
Dew Point: 41 F (5 C)
Relative Humidity: 54%
Pressure (altimeter): 29.85 in. Hg (1011 hPa)
ob: SAWD 231600Z 18008KT 9999 -RA BKN018 BKN100 14/05 Q1011
cycle: 16

Station Type Date Time Source
SAWD TAF UTC NOAA

Error!


Example: see airport list